Republica Dominicana

Vuelos de Bajo Nivel

VUELOS DE BAJO NIVEL DESDE SUPERFICIE HASTA 24,000 PIES.  

VALIDO DESDE 161200Z ...…………………….…………………HASTA 170000Z 

SALIDA  Y  PUESTA  DEL  SOL  06:03 AM / 19:17 PM. 

 

SANTO DOMINGO FIR...PORT-AU-PRINCE FIRHISPANIOLA...SCT020 SCT-BKN060 TOP 120. WDLY

SCT SHRA/ISOL TSRA.OCNL VIS 3-5SM BR TIL 13Z. OTLK...VFR SHRA.WTRS S OF HISPANIOLA...

SCT020 SCT060. ISOL SHRA/TSRA.WND E 20KT. OTLK...VFR SHRA.WTRS ELSW...SCT025 SCT060.

ISOL SHRA. OTLK...VFR SHRA..ICE AND FRZLVL...NO SGFNT ICE EXP OUTSIDE CNVTV ACT.FRZLVL

...SRN GLFMEX...150 TO 160.CARIB... (S OF 20N)...150 TO 165.WRN ATLC (N OF 20N)...140

NE TO 160 SW..TURB...NO SGFNT TURB EXP OUTSIDE CNVTV ACT.....

 

5,000 FT.

10,000 FT.

18,000 FT.

24,000 FT.

MDSD

1010KT+19ºC

1705KT+10ºC

1505KT-06ºC

3405KT-18ºC

MTPP

1010KT+19ºC

1610KT+09ºC

1505KT-06ºC

0305KT-17ºC

TJSJ

1010KT+18ºC

1705KT+10ºC

0705KT-07ºC

3405KT-18ºC

TAF 

TAF MDPP 161000Z 1612/1712 00000KT 9999 FEW016 BECMG 1613/1615 09010KT=  

TAF MDST 161000Z 1612/1712 16012KT 9999 SCT021 PROB30 1620/1700 6000 TSRA FEW016CB BKN018 BKN070=

TAF MDPC 161000Z 1612/1712 08010KT 9999 FEW018CB SCT020 PROB30 1614/1620 8000 -RA SCT016 SCT070=

TAF MDBH 161000Z 1612/1712 00000KT 9999 FEW018 SCT080 PROB30 1618/1701 7000 -RA FEW016CB SCT070=

TAF MDJB 161000Z 1612/1712 00000KT 9999 SCT016 PROB30 1612/1618 8000 -RA FEW016CB BKN018 BECMG 1613/1615 03006KT=

TAF MDSD 161000Z 1612/1712 00000KT 9999 FEW016CB SCT018 PROB30 1618/1700 7000 -RA FEW016CB SCT018 SCT070=

TAF MDLR 161000Z 1612/1712 00000KT 9999 SCT018 PROB40 1618/1700 8000 -RA SCT016 SCT070=

TAF MDCY 161000Z 1612/1712 00000KT 9999 SCT018 PROB30 1618/1700 7000 -RA FEW016CB SCT018 SCT070=

 

TAF KMIA 160905Z 1609/1712 VRB03KT P6SM VCSH SCT025 SCT250 TEMPO 1609/1612 VRB15KT 3SM SHRA BKN025 FM161400 13010KT P6SM SHRA VCTS SCT025CB BKN050 FM170200 10005KT P6SM SCT025 SCT050=

 

TAF KJFK 160839Z 1609/1712 19010KT P6SM VCSH OVC100 FM161500 19014KT P6SM SCT060 BKN100 FM161900 19018G24KT P6SM VCSH BKN060 FM162200 24012KT 6SM -SHRA BR BKN040 PROB30 1622/1701 3SM TSRA BKN040CB FM170400 29006KT P6SM SCT040 BKN100 FM170800 33005KT P6SM BKN040=

 

TAF TJSJ 161034Z 1611/1706 10010KT P6SM -RA VCSH SCT025 BKN050 TEMPO 1611/1614 VRB12G18KT 4SM SHRA BKN025 OVC060 FM161450 08016KT P6SM FEW022 SCT050 BKN080 FM161630 07018G24KT P6SM VCSH SCT025 SCT040 FM162300 09010KT P6SM SCT030 BKN060 BKN100=

 

TAF MUHA 160500Z 1606/1706 VRB03KT 9000 FEW030 SCT100 BECMG 1615/1617 16010KT SCT030 TEMPO 1619/1624 VRB10KT 5000 TSRA FEW020CB BKN030 BECMG 1703/1705 VRB03KT FEW030=

 

TAF MUGM 1607/1707 35005KT 9999 FEW020 SCT150 BKN200 QNH2994INS BECMG 1614/1615 14015G22KT 9999 VCTS SCT020CB SCT060 BKN100 QNH2995INS BECMG 1620/1622 18008KT 9999 NSW FEW020 FEW060 QNH2992INS BECMG 1702/1703 36005KT FEW010 SCT030 BKN080 QNH2998INS T25/1609Z T32/1619Z FN00197=

 

TAF TNCC 161000Z 1612/1712 10014KT 9999 SCT018 TEMPO 1612/1616 BKN014=

 

TAF MKJP 160515Z 1606/1706 35005KT 9999 FEW022 FEW024CB BECMG 1614/1616 15018KT SCT020 FEW022CB BECMG 1701/1703 01005KT=

 

PREPARADO POR: ROBIN RODRIGUEZ 16 de JUNIO del 2019.-

 

 

 

 




Tamaño letra

Contraste

Otros